createdAt,value
2022-09-13T00:02:06.957Z,14.91
2022-09-13T00:04:33.955Z,14.86
2022-09-13T00:07:05.529Z,14.85
2022-09-13T00:09:32.306Z,14.81
2022-09-13T00:11:59.320Z,14.77
2022-09-13T00:14:26.850Z,14.77
2022-09-13T00:16:54.707Z,14.76
2022-09-13T00:19:21.510Z,14.75
2022-09-13T00:21:48.759Z,14.69
2022-09-13T00:24:15.960Z,14.63
2022-09-13T00:26:42.708Z,14.61
2022-09-13T00:29:09.580Z,14.62
2022-09-13T00:31:36.453Z,14.58
2022-09-13T00:34:03.359Z,14.49
2022-09-13T00:36:30.172Z,14.48
2022-09-13T00:38:57.196Z,14.44
2022-09-13T00:41:24.062Z,14.38
2022-09-13T00:43:53.463Z,14.40
2022-09-13T00:46:31.097Z,14.37
2022-09-13T00:49:24.462Z,14.33
2022-09-13T00:51:59.171Z,14.28
2022-09-13T00:54:32.019Z,14.30
2022-09-13T00:57:02.682Z,14.18
2022-09-13T00:59:59.898Z,14.18
2022-09-13T01:02:28.922Z,14.15
2022-09-13T01:04:56.431Z,14.12
2022-09-13T01:07:23.226Z,14.10
2022-09-13T01:09:52.466Z,14.12
2022-09-13T01:12:40.507Z,14.08
2022-09-13T01:15:08.217Z,14.06
2022-09-13T01:17:36.380Z,14.03
2022-09-13T01:20:05.249Z,13.99
2022-09-13T01:23:09.522Z,14.00
2022-09-13T01:26:17.821Z,13.90
2022-09-13T01:29:09.926Z,13.86
2022-09-13T01:31:49.005Z,13.86
2022-09-13T01:35:04.055Z,13.79
2022-09-13T01:38:03.276Z,13.77
2022-09-13T01:41:06.226Z,13.70
2022-09-13T01:43:43.293Z,13.69
2022-09-13T01:46:28.839Z,13.63
2022-09-13T01:49:13.343Z,13.65
2022-09-13T01:51:50.230Z,13.59
2022-09-13T01:54:35.232Z,13.57
2022-09-13T01:57:32.030Z,13.52
2022-09-13T02:00:13.578Z,13.56
2022-09-13T02:02:42.650Z,13.51
2022-09-13T02:05:20.542Z,13.45
2022-09-13T02:07:58.394Z,13.43
2022-09-13T02:10:36.475Z,13.39
2022-09-13T02:13:11.404Z,13.40
2022-09-13T02:15:50.227Z,13.37
2022-09-13T02:18:33.705Z,13.30
2022-09-13T02:21:12.604Z,13.31
2022-09-13T02:23:49.321Z,13.28
2022-09-13T02:26:16.974Z,13.22
2022-09-13T02:28:55.239Z,13.23
2022-09-13T02:31:33.888Z,13.14
2022-09-13T02:34:07.948Z,13.13
2022-09-13T02:36:40.827Z,13.13
2022-09-13T02:39:17.521Z,13.10
2022-09-13T02:41:53.956Z,13.05
2022-09-13T02:44:34.384Z,13.03
2022-09-13T02:47:22.808Z,12.99
2022-09-13T02:50:19.720Z,12.91
2022-09-13T02:53:28.658Z,12.80
2022-09-13T02:56:19.141Z,12.81
2022-09-13T02:58:50.783Z,12.79
2022-09-13T03:01:17.731Z,12.80
2022-09-13T03:03:45.176Z,12.77
2022-09-13T03:06:11.994Z,12.73
2022-09-13T03:08:38.965Z,12.66
2022-09-13T03:11:18.763Z,12.64
2022-09-13T03:14:04.098Z,12.60
2022-09-13T03:16:42.853Z,12.53
2022-09-13T03:19:26.605Z,12.52
2022-09-13T03:21:59.527Z,12.47
2022-09-13T03:24:51.490Z,12.40
2022-09-13T03:27:37.716Z,12.38
2022-09-13T03:30:15.516Z,12.29
2022-09-13T03:32:47.014Z,12.31
2022-09-13T03:35:48.994Z,12.28
2022-09-13T03:38:32.159Z,12.24
2022-09-13T03:41:18.938Z,12.19
2022-09-13T03:43:58.890Z,12.19
2022-09-13T03:46:49.004Z,12.12
2022-09-13T03:49:18.690Z,12.14
2022-09-13T03:51:49.296Z,12.07
2022-09-13T03:54:30.197Z,12.00
2022-09-13T03:57:26.318Z,11.94
2022-09-13T03:59:58.871Z,11.95
2022-09-13T04:02:27.045Z,11.90
2022-09-13T04:04:53.999Z,11.85
2022-09-13T04:07:24.279Z,11.83
2022-09-13T04:09:51.191Z,11.77
2022-09-13T04:12:19.280Z,11.80
2022-09-13T04:14:46.521Z,11.77
2022-09-13T04:17:14.115Z,11.74
2022-09-13T04:19:41.700Z,11.73
2022-09-13T04:22:08.602Z,11.70
2022-09-13T04:24:36.530Z,11.66
2022-09-13T04:27:05.229Z,11.64
2022-09-13T04:29:33.257Z,11.63
2022-09-13T04:32:00.704Z,11.61
2022-09-13T04:34:28.206Z,11.61
2022-09-13T04:36:55.254Z,11.57
2022-09-13T04:39:23.980Z,11.47
2022-09-13T04:41:52.547Z,11.44
2022-09-13T04:44:20.678Z,11.39
2022-09-13T04:46:49.266Z,11.38
2022-09-13T04:49:18.004Z,11.37
2022-09-13T04:51:45.172Z,11.30
2022-09-13T04:54:15.673Z,11.31
2022-09-13T04:56:44.467Z,11.26
2022-09-13T04:59:12.301Z,11.30
2022-09-13T05:01:39.875Z,11.25
2022-09-13T05:04:08.876Z,11.22
2022-09-13T05:06:36.304Z,11.18
2022-09-13T05:09:03.765Z,11.15
2022-09-13T05:11:30.699Z,11.11
2022-09-13T05:14:00.522Z,11.11
2022-09-13T05:16:30.990Z,11.08
2022-09-13T05:18:58.491Z,11.08
2022-09-13T05:21:28.062Z,11.06
2022-09-13T05:23:56.467Z,11.04
2022-09-13T05:26:26.430Z,11.01
2022-09-13T05:28:53.760Z,10.99
2022-09-13T05:31:32.054Z,10.95
2022-09-13T05:34:17.759Z,10.94
2022-09-13T05:36:44.872Z,10.95
2022-09-13T05:39:36.538Z,10.90
2022-09-13T05:42:09.181Z,10.87
2022-09-13T05:44:35.949Z,10.88
2022-09-13T05:47:02.700Z,10.90
2022-09-13T05:49:29.612Z,10.95
2022-09-13T05:51:56.355Z,10.92
2022-09-13T05:54:23.116Z,10.93
2022-09-13T05:56:52.658Z,10.98
2022-09-13T05:59:19.416Z,10.96
2022-09-13T06:01:46.444Z,10.97
2022-09-13T06:04:13.264Z,10.99
2022-09-13T06:06:40.217Z,11.00
2022-09-13T06:09:08.803Z,11.06
2022-09-13T06:11:35.531Z,11.10
2022-09-13T06:14:02.469Z,11.15
2022-09-13T06:16:29.277Z,11.18
2022-09-13T06:18:56.206Z,11.25
2022-09-13T06:21:28.303Z,11.33
2022-09-13T06:23:55.919Z,11.30
2022-09-13T06:26:26.743Z,11.39
2022-09-13T06:28:56.486Z,11.43
2022-09-13T06:31:25.871Z,11.48
2022-09-13T06:34:03.176Z,11.55
2022-09-13T06:36:31.302Z,11.65
2022-09-13T06:39:00.730Z,11.71
2022-09-13T06:41:28.254Z,11.81
2022-09-13T06:43:58.876Z,11.92
2022-09-13T06:46:30.413Z,11.98
2022-09-13T06:49:05.219Z,11.98
2022-09-13T06:51:34.079Z,12.07
2022-09-13T06:54:01.466Z,12.08
2022-09-13T06:56:37.860Z,12.10
2022-09-13T06:59:07.867Z,12.18
2022-09-13T07:01:41.632Z,12.19
2022-09-13T07:04:14.150Z,12.23
2022-09-13T07:06:48.037Z,12.26
2022-09-13T07:09:18.991Z,12.34
2022-09-13T07:11:47.613Z,12.39
2022-09-13T07:14:18.398Z,12.43
2022-09-13T07:16:46.874Z,12.47
2022-09-13T07:19:20.579Z,12.64
2022-09-13T07:21:49.004Z,12.75
2022-09-13T07:24:17.694Z,12.73
2022-09-13T07:26:45.518Z,12.77
2022-09-13T07:29:19.509Z,12.86
2022-09-13T07:31:49.256Z,12.88
2022-09-13T07:34:25.692Z,13.00
2022-09-13T07:36:53.000Z,13.14
2022-09-13T07:39:22.699Z,13.26
2022-09-13T07:41:51.043Z,13.44
2022-09-13T07:44:18.159Z,13.63
2022-09-13T07:46:44.999Z,13.80
2022-09-13T07:49:19.072Z,13.95
2022-09-13T07:51:46.159Z,14.07
2022-09-13T07:54:17.778Z,14.19
2022-09-13T07:56:45.920Z,14.40
2022-09-13T07:59:15.897Z,14.56
2022-09-13T08:01:49.399Z,14.76
2022-09-13T08:04:21.362Z,14.93
2022-09-13T08:06:48.486Z,15.12
2022-09-13T08:09:16.584Z,15.28
2022-09-13T08:11:47.485Z,15.43
2022-09-13T08:14:18.102Z,15.45
2022-09-13T08:16:45.543Z,15.56
2022-09-13T08:19:18.349Z,15.73
2022-09-13T08:21:46.416Z,15.81
2022-09-13T08:24:20.074Z,15.90
2022-09-13T08:26:48.310Z,15.94
2022-09-13T08:29:16.327Z,16.04
2022-09-13T08:31:43.666Z,16.04
2022-09-13T08:34:16.052Z,16.09
2022-09-13T08:36:43.755Z,16.13
2022-09-13T08:39:13.854Z,16.09
2022-09-13T08:41:42.363Z,16.09
2022-09-13T08:44:56.376Z,16.03
2022-09-13T08:47:42.079Z,15.96
2022-09-13T08:50:21.812Z,16.00
2022-09-13T08:53:28.459Z,15.98
2022-09-13T08:56:12.976Z,15.90
2022-09-13T08:59:01.170Z,15.86
2022-09-13T09:01:47.121Z,15.86
2022-09-13T09:04:39.229Z,15.71
2022-09-13T09:07:15.756Z,15.88
2022-09-13T09:09:52.845Z,15.86
2022-09-13T09:12:41.767Z,15.91
2022-09-13T09:15:45.562Z,15.93
2022-09-13T09:18:12.399Z,16.04
2022-09-13T09:20:49.887Z,16.07
2022-09-13T09:23:41.015Z,16.09
2022-09-13T09:26:17.356Z,16.16
2022-09-13T09:28:51.140Z,16.21
2022-09-13T09:31:35.585Z,16.30
2022-09-13T09:34:43.152Z,16.41
2022-09-13T09:37:26.102Z,16.50
2022-09-13T09:39:56.279Z,16.61
2022-09-13T09:42:28.431Z,16.72
2022-09-13T09:45:06.015Z,16.86
2022-09-13T09:47:45.775Z,16.95
2022-09-13T09:50:22.793Z,16.99
2022-09-13T09:53:00.171Z,17.03
2022-09-13T09:55:33.735Z,17.13
2022-09-13T09:58:06.293Z,17.24
2022-09-13T10:00:37.916Z,17.37
2022-09-13T10:03:17.726Z,17.53
2022-09-13T10:05:44.863Z,17.60
2022-09-13T10:08:40.190Z,17.67
2022-09-13T10:11:08.211Z,17.83
2022-09-13T10:13:38.452Z,17.91
2022-09-13T10:16:26.649Z,17.93
2022-09-13T10:18:53.719Z,17.93
2022-09-13T10:21:26.295Z,18.03
2022-09-13T10:24:17.907Z,18.08
2022-09-13T10:26:45.856Z,18.09
2022-09-13T10:29:17.843Z,18.12
2022-09-13T10:31:47.932Z,18.20
2022-09-13T10:34:22.692Z,18.18
2022-09-13T10:37:06.889Z,18.30
2022-09-13T10:39:37.047Z,18.25
2022-09-13T10:42:08.840Z,18.18
2022-09-13T10:44:57.040Z,17.96
2022-09-13T10:47:34.731Z,18.08
2022-09-13T10:50:26.848Z,18.07
2022-09-13T10:52:56.644Z,18.04
2022-09-13T10:55:24.719Z,18.09
2022-09-13T10:57:57.688Z,18.16
2022-09-13T11:00:36.773Z,18.22
2022-09-13T11:03:45.820Z,18.35
2022-09-13T11:06:36.816Z,18.40
2022-09-13T11:09:20.271Z,18.54
2022-09-13T11:12:20.608Z,18.62
2022-09-13T11:15:20.813Z,18.65
2022-09-13T11:18:16.764Z,18.70
2022-09-13T11:21:11.132Z,18.73
2022-09-13T11:24:11.671Z,18.63
2022-09-13T11:26:47.459Z,18.63
2022-09-13T11:29:41.176Z,18.61
2022-09-13T11:32:07.959Z,18.60
2022-09-13T11:34:55.143Z,18.61
2022-09-13T11:37:37.115Z,18.55
2022-09-13T11:40:23.310Z,18.56
2022-09-13T11:43:00.259Z,18.64
2022-09-13T11:45:40.475Z,18.68
2022-09-13T11:48:32.053Z,18.68
2022-09-13T11:51:30.146Z,18.76
2022-09-13T11:54:20.531Z,18.81
2022-09-13T11:56:54.573Z,18.97
2022-09-13T11:59:38.864Z,19.04
2022-09-13T12:02:24.677Z,19.12
2022-09-13T12:08:18.780Z,19.14
2022-09-13T12:11:04.240Z,19.17
2022-09-13T12:13:35.687Z,19.12
2022-09-13T12:16:10.145Z,19.27
2022-09-13T12:18:44.831Z,19.37
2022-09-13T12:21:24.188Z,19.35
2022-09-13T12:24:23.939Z,19.52
2022-09-13T12:27:01.109Z,19.61
2022-09-13T12:29:49.286Z,19.64
2022-09-13T12:32:18.024Z,19.70
2022-09-13T12:35:09.518Z,19.77
2022-09-13T12:37:51.392Z,19.84
2022-09-13T12:40:49.406Z,19.78
2022-09-13T12:43:52.300Z,19.76
2022-09-13T12:46:55.919Z,19.76
2022-09-13T12:49:43.852Z,19.82
2022-09-13T12:52:44.461Z,19.72
2022-09-13T12:55:52.143Z,19.78
2022-09-13T12:58:46.326Z,19.79
2022-09-13T13:01:20.452Z,19.83
2022-09-13T13:03:56.298Z,19.92
2022-09-13T13:06:39.714Z,20.02
2022-09-13T13:09:33.223Z,20.15
2022-09-13T13:12:00.844Z,20.23
2022-09-13T13:14:39.788Z,20.33
2022-09-13T13:17:51.199Z,20.39
2022-09-13T13:20:51.996Z,20.49
2022-09-13T13:23:35.589Z,20.53
2022-09-13T13:26:57.698Z,20.58
2022-09-13T13:29:32.383Z,20.67
2022-09-13T13:32:02.695Z,20.67
2022-09-13T13:34:44.820Z,20.58
2022-09-13T13:37:11.517Z,20.65
2022-09-13T13:39:48.572Z,20.58
2022-09-13T13:42:38.385Z,20.58
2022-09-13T13:45:07.736Z,20.57
2022-09-13T13:47:34.607Z,20.58
2022-09-13T13:50:17.367Z,20.58
2022-09-13T13:52:47.212Z,20.68
2022-09-13T13:55:39.320Z,20.76
2022-09-13T13:58:30.852Z,20.79
2022-09-13T14:01:02.252Z,20.80
2022-09-13T14:03:43.106Z,20.75
2022-09-13T14:06:25.152Z,20.80
2022-09-13T14:09:13.154Z,20.78
2022-09-13T14:11:51.945Z,20.82
2022-09-13T14:14:43.632Z,20.83
2022-09-13T14:18:00.001Z,20.88
2022-09-13T14:20:26.889Z,20.96
2022-09-13T14:23:21.240Z,20.98
2022-09-13T14:25:56.028Z,21.06
2022-09-13T14:28:24.094Z,21.13
2022-09-13T14:30:58.531Z,21.16
2022-09-13T14:33:36.412Z,21.26
2022-09-13T14:36:18.131Z,21.22
2022-09-13T14:39:00.152Z,21.24
2022-09-13T14:41:37.730Z,21.21
2022-09-13T14:44:29.052Z,21.06
2022-09-13T14:47:29.248Z,21.08
2022-09-13T14:50:07.226Z,21.07
2022-09-13T14:52:49.438Z,21.07
2022-09-13T14:55:22.406Z,20.98
2022-09-13T14:57:54.891Z,20.98
2022-09-13T15:00:24.519Z,20.93
2022-09-13T15:03:10.848Z,20.96
2022-09-13T15:05:37.870Z,20.95
2022-09-13T15:08:33.323Z,20.99
2022-09-13T15:11:02.708Z,21.09
2022-09-13T15:13:29.758Z,21.00
2022-09-13T15:15:56.544Z,21.01
2022-09-13T15:18:36.270Z,20.92
2022-09-13T15:21:16.023Z,20.81
2022-09-13T15:23:50.141Z,20.70
2022-09-13T15:26:23.927Z,20.71
2022-09-13T15:28:54.464Z,20.61
2022-09-13T15:31:27.970Z,20.57
2022-09-13T15:34:20.566Z,20.55
2022-09-13T15:37:08.936Z,20.51
2022-09-13T15:39:53.816Z,20.46
2022-09-13T15:42:20.762Z,20.48
2022-09-13T15:44:47.639Z,20.43
2022-09-13T15:47:18.922Z,20.41
2022-09-13T15:49:52.443Z,20.39
2022-09-13T15:52:20.687Z,20.42
2022-09-13T15:54:50.542Z,20.37
2022-09-13T15:57:23.688Z,20.41
2022-09-13T15:59:51.024Z,20.38
2022-09-13T16:02:19.662Z,20.42
2022-09-13T16:04:47.114Z,20.45
2022-09-13T16:07:14.768Z,20.49
2022-09-13T16:09:41.618Z,20.49
2022-09-13T16:12:09.151Z,20.48
2022-09-13T16:14:35.941Z,20.45
2022-09-13T16:17:24.737Z,20.34
2022-09-13T16:19:53.100Z,20.43
2022-09-13T16:22:20.507Z,20.47
2022-09-13T16:24:47.922Z,20.52
2022-09-13T16:27:17.361Z,20.50
2022-09-13T16:29:44.355Z,20.45
2022-09-13T16:32:11.624Z,20.40
2022-09-13T16:34:39.617Z,20.42
2022-09-13T16:37:06.474Z,20.38
2022-09-13T16:39:33.249Z,20.37
2022-09-13T16:42:00.043Z,20.35
2022-09-13T16:44:26.786Z,20.33
2022-09-13T16:46:53.623Z,20.31
2022-09-13T16:49:20.795Z,20.24
2022-09-13T16:51:47.567Z,20.27
2022-09-13T16:54:14.348Z,20.29
2022-09-13T16:56:41.542Z,20.29
2022-09-13T16:59:08.438Z,20.30
2022-09-13T17:01:36.015Z,20.28
2022-09-13T17:04:03.655Z,20.28
2022-09-13T17:06:30.485Z,20.19
2022-09-13T17:09:01.768Z,20.12
2022-09-13T17:11:33.414Z,20.08
2022-09-13T17:14:02.301Z,20.01
2022-09-13T17:16:34.093Z,19.94
2022-09-13T17:19:04.761Z,19.88
2022-09-13T17:21:33.907Z,19.79
2022-09-13T17:24:02.344Z,19.72
2022-09-13T17:26:29.243Z,19.66
2022-09-13T17:28:56.155Z,19.59
2022-09-13T17:31:23.000Z,19.54
2022-09-13T17:33:50.272Z,19.49
2022-09-13T17:36:17.403Z,19.36
2022-09-13T17:38:44.467Z,19.35
2022-09-13T17:41:18.271Z,19.26
2022-09-13T17:43:47.003Z,19.13
2022-09-13T17:46:23.798Z,19.01
2022-09-13T17:48:53.525Z,18.92
2022-09-13T17:51:23.685Z,18.84
2022-09-13T17:53:54.489Z,18.76
2022-09-13T17:56:34.306Z,18.68
2022-09-13T17:59:17.588Z,18.57
2022-09-13T18:01:48.608Z,18.45
2022-09-13T18:04:19.041Z,18.36
2022-09-13T18:06:54.651Z,18.26
2022-09-13T18:09:22.007Z,18.21
2022-09-13T18:11:49.765Z,18.12
2022-09-13T18:14:18.645Z,18.03
2022-09-13T18:16:46.500Z,17.96
2022-09-13T18:19:13.795Z,17.88
2022-09-13T18:21:41.358Z,17.77
2022-09-13T18:24:08.471Z,17.71
2022-09-13T18:26:36.471Z,17.62
2022-09-13T18:29:07.405Z,17.56
2022-09-13T18:31:36.346Z,17.51
2022-09-13T18:34:13.055Z,17.41
2022-09-13T18:36:41.044Z,17.32
2022-09-13T18:39:15.264Z,17.25
2022-09-13T18:41:42.071Z,17.17
2022-09-13T18:44:12.533Z,17.09
2022-09-13T18:46:40.122Z,17.04
2022-09-13T18:49:07.978Z,16.97
2022-09-13T18:51:43.843Z,16.89
2022-09-13T18:54:17.846Z,16.80
2022-09-13T18:56:46.511Z,16.74
2022-09-13T18:59:14.003Z,16.67
2022-09-13T19:01:43.330Z,16.63
2022-09-13T19:04:19.622Z,16.50
2022-09-13T19:06:50.508Z,16.47
2022-09-13T19:09:20.095Z,16.45
2022-09-13T19:11:49.744Z,16.35
2022-09-13T19:14:27.286Z,16.31
2022-09-13T19:17:01.170Z,16.24
2022-09-13T19:19:29.123Z,16.17
2022-09-13T19:21:55.881Z,16.12
2022-09-13T19:24:22.907Z,16.09
2022-09-13T19:26:51.764Z,16.01
2022-09-13T19:29:23.452Z,15.94
2022-09-13T19:31:52.869Z,15.89
2022-09-13T19:34:22.188Z,15.79
2022-09-13T19:36:53.666Z,15.75
2022-09-13T19:39:20.481Z,15.69
2022-09-13T19:41:47.445Z,15.64
2022-09-13T19:44:14.874Z,15.60
2022-09-13T19:46:42.988Z,15.56
2022-09-13T19:49:14.719Z,15.52
2022-09-13T19:51:46.460Z,15.49
2022-09-13T19:54:17.188Z,15.43
2022-09-13T19:56:44.664Z,15.36
2022-09-13T19:59:16.026Z,15.33
2022-09-13T20:01:46.347Z,15.26
2022-09-13T20:04:17.516Z,15.26
2022-09-13T20:06:52.019Z,15.16
2022-09-13T20:09:20.908Z,15.14
2022-09-13T20:11:49.026Z,15.08
2022-09-13T20:14:19.016Z,15.05
2022-09-13T20:16:46.643Z,14.97
2022-09-13T20:22:09.953Z,14.89
2022-09-13T20:24:37.243Z,14.85
2022-09-13T20:27:04.760Z,14.82
2022-09-13T20:29:31.940Z,14.77
2022-09-13T20:31:59.807Z,14.73
2022-09-13T20:34:27.445Z,14.69
2022-09-13T20:36:54.186Z,14.67
2022-09-13T20:39:21.018Z,14.64
2022-09-13T20:41:49.458Z,14.61
2022-09-13T20:44:16.513Z,14.59
2022-09-13T20:46:43.721Z,14.60
2022-09-13T20:49:11.921Z,14.57
2022-09-13T20:51:38.993Z,14.56
2022-09-13T20:54:06.569Z,14.58
2022-09-13T20:56:34.658Z,14.53
2022-09-13T20:59:02.246Z,14.54
2022-09-13T21:01:31.613Z,14.50
2022-09-13T21:03:59.741Z,14.49
2022-09-13T21:06:30.350Z,14.49
2022-09-13T21:09:00.299Z,14.45
2022-09-13T21:11:35.136Z,14.44
2022-09-13T21:14:06.105Z,14.40
2022-09-13T21:16:36.351Z,14.40
2022-09-13T21:19:04.124Z,14.40
2022-09-13T21:21:38.535Z,14.35
2022-09-13T21:24:09.949Z,14.35
2022-09-13T21:26:42.269Z,14.38
2022-09-13T21:29:10.704Z,14.30
2022-09-13T21:31:38.195Z,14.29
2022-09-13T21:34:14.875Z,14.24
2022-09-13T21:36:42.286Z,14.29
2022-09-13T21:39:09.599Z,14.22
2022-09-13T21:41:36.903Z,14.22
2022-09-13T21:44:04.175Z,14.16
2022-09-13T21:46:35.251Z,14.14
2022-09-13T21:49:08.255Z,14.10
2022-09-13T21:51:47.375Z,14.01
2022-09-13T21:54:18.171Z,14.02
2022-09-13T21:56:51.548Z,13.97
2022-09-13T21:59:20.888Z,13.97
2022-09-13T22:01:51.538Z,13.94
2022-09-13T22:04:22.499Z,13.90
2022-09-13T22:06:54.486Z,13.85
2022-09-13T22:09:24.213Z,13.83
2022-09-13T22:11:50.984Z,13.79
2022-09-13T22:14:22.061Z,13.76
2022-09-13T22:16:49.920Z,13.77
2022-09-13T22:19:24.338Z,13.70
2022-09-13T22:22:01.478Z,13.64
2022-09-13T22:24:32.430Z,13.63
2022-09-13T22:26:59.374Z,13.62
2022-09-13T22:29:26.499Z,13.55
2022-09-13T22:31:53.648Z,13.53
2022-09-13T22:34:24.203Z,13.48
2022-09-13T22:36:51.160Z,13.46
2022-09-13T22:39:18.368Z,13.42
2022-09-13T22:41:45.661Z,13.36
2022-09-13T22:44:15.892Z,13.29
2022-09-13T22:46:46.824Z,13.26
2022-09-13T22:49:19.946Z,13.20
2022-09-13T22:51:48.255Z,13.18
2022-09-13T22:54:17.369Z,13.16
2022-09-13T22:56:44.639Z,13.13
2022-09-13T22:59:15.440Z,13.07
2022-09-13T23:01:42.876Z,13.07
2022-09-13T23:04:10.197Z,13.01
2022-09-13T23:06:37.397Z,12.96
2022-09-13T23:09:08.284Z,12.92
2022-09-13T23:11:40.121Z,12.85
2022-09-13T23:14:11.233Z,12.84
2022-09-13T23:16:49.226Z,12.79
2022-09-13T23:19:18.125Z,12.72
2022-09-13T23:21:45.274Z,12.70
2022-09-13T23:24:16.480Z,12.63
2022-09-13T23:26:44.989Z,12.59
2022-09-13T23:29:15.785Z,12.53
2022-09-13T23:31:43.570Z,12.50
2022-09-13T23:34:12.847Z,12.43
2022-09-13T23:36:42.492Z,12.41
2022-09-13T23:39:16.788Z,12.40
2022-09-13T23:41:46.487Z,12.40
2022-09-13T23:44:13.700Z,12.38
2022-09-13T23:46:41.432Z,12.37
2022-09-13T23:49:08.192Z,12.36
2022-09-13T23:51:35.099Z,12.36
2022-09-13T23:54:03.116Z,12.33
2022-09-13T23:56:31.722Z,12.34
2022-09-13T23:59:00.942Z,12.28
